< < Back
Terminal Aerodrome Forecast


Current Version              Previous Versions:   1  2  3  4  5  6  7  8  9  

Terminal Aerodrome Forecast

209
FTUS42 KFFC 270209 AAC
TAFPDK
TAF AMD
KPDK 270209Z 2702/2724 10005KT P6SM VCTS BKN060CB
     FM270300 10004KT P6SM SCT250
     FM271500 09007KT P6SM SCT045
     FM271900 10009KT P6SM SCT060=



Latest METAR

808
SAUS70 KWBC 271600 RRA
MTRPDK
METAR KPDK 271553Z VRB03KT 10SM CLR 31/22 A3013 RMK AO2 SLP183
T03060217


USA.gov is the U.S. government's official web portal to all federal, state and local government web resources and services.